Time;durP1;ratioP1;P1;durP2;ratioP2;P2;SDS_P1;SDS_P2;PMS_P1;PMS_P2;Temp;Humidity;BMP_temperature;BMP_pressure;BME280_temperature;BME280_humidity;BME280_pressure;Samples;Min_cycle;Max_cycle;Signal;HPM_P1;HPM_P2
2022/09/11 00:01:29;;;;;;;47.47;28.48;;;14.30;99.90;;;-144.05;96.74;125687.94;4939804;29;20031;-87
2022/09/11 00:03:56;;;;;;;40.25;24.60;;;14.20;99.90;;;-144.05;96.69;125687.94;4939310;29;20042;-89
2022/09/11 00:06:25;;;;;;;38.42;26.05;;;14.20;99.90;;;-144.05;96.87;125687.94;4955558;28;20051;-88
2022/09/11 00:09:00;;;;;;;48.17;27.98;;;14.20;99.90;;;-144.05;97.31;125687.94;4939031;29;20412;-89
2022/09/11 00:11:32;;;;;;;43.00;25.58;;;14.30;99.90;;;-144.05;97.06;125687.94;4955342;28;20058;-86
2022/09/11 00:13:58;;;;;;;46.92;26.55;;;14.20;99.90;;;-144.05;96.84;125687.94;4955158;29;20476;-89
2022/09/11 00:16:36;;;;;;;46.28;26.50;;;14.20;99.90;;;-144.05;97.02;125687.94;4939103;29;20384;-86
2022/09/11 00:19:18;;;;;;;42.20;25.85;;;14.20;99.90;;;-144.05;97.11;125687.94;4938400;29;20027;-87
2022/09/11 00:21:46;;;;;;;38.05;23.73;;;14.20;99.90;;;-144.05;97.03;125687.94;4939278;29;20031;-85
2022/09/11 00:24:12;;;;;;;50.75;27.50;;;14.20;99.90;;;-144.05;97.02;125687.94;4939375;29;20119;-84
2022/09/11 00:26:39;;;;;;;49.90;29.60;;;14.10;99.90;;;-144.05;97.18;125687.94;4955707;29;20118;-86
2022/09/11 00:29:05;;;;;;;47.28;27.63;;;14.10;99.90;;;-144.05;97.01;125687.94;4940653;29;20034;-88
2022/09/11 00:31:31;;;;;;;51.50;29.45;;;14.10;99.90;;;-144.05;96.95;125687.94;4943812;29;20051;-89
2022/09/11 00:33:58;;;;;;;48.45;28.83;;;14.10;99.90;;;-144.05;96.83;125687.94;4939469;29;20050;-87
2022/09/11 00:36:28;;;;;;;42.05;24.27;;;14.10;99.90;;;-144.05;96.85;125687.94;4955285;29;20059;-87
2022/09/11 00:38:55;;;;;;;45.22;26.10;;;14.00;99.90;;;-144.05;96.75;125687.94;4940903;29;20431;-89
2022/09/11 00:41:29;;;;;;;114.40;27.73;;;13.90;99.90;;;-144.05;96.66;125687.94;4939733;29;20448;-86
2022/09/11 00:44:12;;;;;;;29.20;18.85;;;13.90;99.90;;;-144.05;96.62;125687.94;4940202;29;20040;-88
2022/09/11 00:46:57;;;;;;;32.78;20.45;;;13.80;99.90;;;-144.05;96.42;125687.94;4955295;28;20103;-88
2022/09/11 00:49:34;;;;;;;27.02;18.05;;;13.70;99.90;;;-144.05;96.62;125687.94;4956246;28;20028;-89
2022/09/11 00:52:21;;;;;;;37.92;21.85;;;13.70;99.90;;;-144.05;96.61;125687.94;4939703;29;20023;-90
2022/09/11 00:54:59;;;;;;;32.33;20.92;;;13.70;99.90;;;-144.05;96.58;125687.94;4961926;29;20051;-90
2022/09/11 00:57:38;;;;;;;39.63;23.17;;;13.60;99.90;;;-144.05;96.57;125687.94;4948400;29;20039;-88
2022/09/11 01:00:07;;;;;;;48.53;26.70;;;13.60;99.90;;;-144.05;96.92;125687.94;4949197;29;20032;-87
2022/09/11 01:02:38;;;;;;;47.85;25.38;;;13.60;99.90;;;-144.05;96.80;125687.94;4946001;29;20035;-88
2022/09/11 01:05:06;;;;;;;46.78;25.45;;;13.60;99.90;;;-144.05;97.17;125687.94;4938336;29;20050;-89
2022/09/11 01:07:35;;;;;;;47.92;25.85;;;13.50;99.90;;;-144.05;96.93;125687.94;4937862;29;20031;-88
2022/09/11 01:10:05;;;;;;;48.55;27.13;;;13.60;99.90;;;-144.05;97.15;125687.94;4937801;29;20024;-87
2022/09/11 01:13:32;;;;;;;45.17;26.02;;;13.60;99.90;;;-144.05;96.97;125687.94;4938726;29;20411;-88
2022/09/11 01:16:18;;;;;;;50.35;27.10;;;13.60;99.90;;;-144.05;96.85;125687.94;4923058;29;20036;-89
2022/09/11 01:19:36;;;;;;;53.78;29.67;;;13.60;99.90;;;-144.05;96.93;125687.94;4939381;29;20152;-88
2022/09/11 01:23:19;;;;;;;49.25;27.55;;;13.60;99.90;;;-144.05;96.93;125687.94;4917262;29;20024;-88
2022/09/11 01:26:13;;;;;;;49.53;27.05;;;13.50;99.90;;;-144.05;96.79;125687.94;4937861;29;20043;-88
2022/09/11 01:29:19;;;;;;;36.40;22.25;;;13.50;99.90;;;-144.05;96.55;125687.94;4952951;28;20032;-88
2022/09/11 01:32:18;;;;;;;59.53;29.73;;;13.50;99.90;;;-144.05;97.35;125687.94;4937435;29;20035;-90
2022/09/11 01:35:19;;;;;;;53.17;26.15;;;13.50;99.90;;;-144.05;97.13;125687.94;4937396;29;20488;-87
2022/09/11 01:38:47;;;;;;;60.45;27.67;;;13.50;99.90;;;-144.05;97.42;125687.94;4938483;29;20127;-87
2022/09/11 01:41:45;;;;;;;54.50;27.75;;;13.60;99.90;;;-144.05;97.26;125687.94;4935162;29;20043;-87
2022/09/11 01:44:26;;;;;;;54.55;26.65;;;13.80;99.90;;;-144.05;97.26;125687.94;4937069;29;20094;-87
2022/09/11 01:46:53;;;;;;;65.30;31.58;;;13.90;99.90;;;-144.05;97.41;125687.94;4938891;29;20227;-87
2022/09/11 01:49:40;;;;;;;59.08;30.73;;;14.00;99.90;;;-144.05;97.32;125687.94;4936966;29;20031;-88
2022/09/11 01:52:17;;;;;;;70.00;33.80;;;14.00;99.90;;;-144.05;97.38;125687.94;4937087;29;20476;-88
2022/09/11 01:55:00;;;;;;;60.88;30.63;;;14.10;99.90;;;-144.05;97.31;125687.94;4936959;29;20046;-87
2022/09/11 01:57:45;;;;;;;49.63;26.83;;;14.10;99.90;;;-144.05;97.25;125687.94;4937069;29;20481;-87
2022/09/11 02:00:13;;;;;;;49.15;26.13;;;14.10;99.90;;;-144.05;97.23;125687.94;4937286;29;20053;-86
2022/09/11 02:02:52;;;;;;;57.08;28.30;;;14.10;99.90;;;-144.05;97.34;125687.94;4937140;29;20098;-87
2022/09/11 02:05:31;;;;;;;55.83;28.00;;;14.10;99.90;;;-144.05;97.39;125687.94;4937614;29;20032;-88
2022/09/11 02:08:15;;;;;;;51.78;28.35;;;14.10;99.90;;;-144.05;97.61;125687.94;4937434;29;20461;-89
2022/09/11 02:10:53;;;;;;;49.70;27.30;;;14.20;99.90;;;-144.05;97.69;125687.94;4937482;29;20031;-88
2022/09/11 02:13:34;;;;;;;52.10;27.85;;;14.20;99.90;;;-144.05;97.54;125687.94;4939124;29;20404;-89
2022/09/11 02:16:29;;;;;;;53.28;27.50;;;14.30;99.90;;;-144.05;97.46;125687.94;4937496;29;20081;-87
2022/09/11 02:19:05;;;;;;;46.55;25.63;;;14.30;99.90;;;-144.05;97.56;125687.94;4938963;29;20103;-85
2022/09/11 02:21:32;;;;;;;;;;;14.30;99.90;;;-144.05;97.45;125687.94;4938740;29;20395;-85
2022/09/11 02:24:01;;;;;;;48.75;25.67;;;14.30;99.90;;;-144.05;97.35;125687.94;4939396;29;19965;-88
2022/09/11 02:26:35;;;;;;;55.58;28.98;;;14.30;99.90;;;-144.05;97.43;125687.94;4939206;29;20023;-85
2022/09/11 02:29:01;;;;;;;56.42;29.15;;;14.30;99.90;;;-144.05;97.53;125687.94;4941366;29;20020;-88
2022/09/11 02:31:27;;;;;;;49.45;27.00;;;14.30;99.90;;;-144.05;97.61;125687.94;4937133;29;20028;-88
2022/09/11 02:33:53;;;;;;;44.30;24.42;;;14.30;99.90;;;-144.05;97.63;125687.94;4936859;29;20082;-87
2022/09/11 02:36:30;;;;;;;46.45;25.98;;;14.30;99.90;;;-144.05;97.79;125687.94;4936659;29;20031;-87
2022/09/11 02:39:25;;;;;;;55.80;28.35;;;14.30;99.90;;;-144.05;97.77;125687.94;4952020;28;20063;-88
2022/09/11 02:42:21;;;;;;;52.80;28.52;;;14.40;99.90;;;-144.05;97.84;125687.94;4931774;29;20047;-89
2022/09/11 02:45:08;;;;;;;53.83;28.40;;;14.40;99.90;;;-144.05;97.80;125687.94;4936254;29;20040;-88
2022/09/11 02:48:17;;;;;;;52.28;26.63;;;14.40;99.90;;;-144.05;97.67;125687.94;4938048;29;20028;-88
2022/09/11 02:50:54;;;;;;;50.25;26.92;;;14.40;99.90;;;-144.05;97.58;125687.94;4952773;28;20035;-87
2022/09/11 02:54:18;;;;;;;57.15;28.95;;;14.40;99.90;;;-144.05;97.56;125687.94;4955540;28;20089;-89
2022/09/11 02:57:19;;;;;;;43.88;23.67;;;14.40;99.90;;;-144.05;97.72;125687.94;4939340;29;20047;-88
2022/09/11 02:59:56;;;;;;;42.72;24.73;;;14.30;99.90;;;-144.05;97.56;125687.94;4940799;29;20027;-87
2022/09/11 03:02:24;;;;;;;49.45;27.05;;;14.40;99.90;;;-144.05;97.55;125687.94;4940105;29;20087;-88
2022/09/11 03:04:50;;;;;;;51.33;26.60;;;14.30;99.90;;;-144.05;97.59;125687.94;4940197;29;20044;-89
2022/09/11 03:07:15;;;;;;;52.25;27.50;;;14.30;99.90;;;-144.05;97.70;125687.94;4939741;29;20083;-88
2022/09/11 03:09:42;;;;;;;55.15;28.35;;;14.30;99.90;;;-144.05;97.78;125687.94;4940161;29;20036;-87
2022/09/11 03:12:08;;;;;;;44.92;25.08;;;14.40;99.90;;;-144.05;97.80;125687.94;4940517;29;20031;-88
2022/09/11 03:14:35;;;;;;;49.22;26.40;;;14.40;99.90;;;-144.05;97.82;125687.94;4939580;29;20445;-87
2022/09/11 03:17:01;;;;;;;58.95;30.40;;;14.40;99.90;;;-144.05;97.61;125687.94;4939898;29;20633;-86
2022/09/11 03:19:27;;;;;;;48.75;27.40;;;14.50;99.90;;;-144.05;97.72;125687.94;4940110;29;20057;-88
2022/09/11 03:21:53;;;;;;;45.65;25.13;;;14.50;99.90;;;-144.05;97.56;125687.94;4942011;29;20028;-87
2022/09/11 03:24:19;;;;;;;44.38;25.58;;;14.50;99.90;;;-144.05;97.41;125687.94;4940889;29;20043;-89
2022/09/11 03:26:45;;;;;;;55.15;28.65;;;14.50;99.90;;;-144.05;97.52;125687.94;4956750;28;20032;-88
2022/09/11 03:29:11;;;;;;;44.95;26.13;;;14.40;99.90;;;-144.05;97.64;125687.94;4940687;29;20028;-88
2022/09/11 03:31:37;;;;;;;46.55;25.27;;;14.40;99.90;;;-144.05;97.55;125687.94;4957357;28;20062;-88
2022/09/11 03:34:03;;;;;;;41.00;24.52;;;14.40;99.90;;;-144.05;97.55;125687.94;4941763;29;20070;-89
2022/09/11 03:36:29;;;;;;;40.13;23.88;;;14.40;99.90;;;-144.05;97.50;125687.94;4941587;29;20137;-89
2022/09/11 03:38:55;;;;;;;34.72;20.48;;;14.40;99.90;;;-144.05;97.29;125687.94;4941921;29;20032;-89
2022/09/11 03:41:21;;;;;;;39.58;23.27;;;14.30;99.90;;;-144.05;97.04;125687.94;4940260;29;20027;-87
2022/09/11 03:43:47;;;;;;;43.50;24.58;;;14.30;99.90;;;-144.05;97.10;125687.94;4939873;29;20079;-87
2022/09/11 03:46:13;;;;;;;43.05;24.45;;;14.20;99.90;;;-144.05;97.37;125687.94;4940764;29;20106;-88
2022/09/11 03:48:39;;;;;;;48.47;26.55;;;14.20;99.90;;;-144.05;97.21;125687.94;4939137;29;20110;-88
2022/09/11 03:51:05;;;;;;;52.10;28.17;;;14.20;99.90;;;-144.05;97.26;125687.94;4939296;29;20035;-90
2022/09/11 03:53:32;;;;;;;45.97;26.98;;;14.20;99.90;;;-144.05;97.31;125687.94;4940654;29;20079;-88
2022/09/11 03:56:03;;;;;;;45.50;26.40;;;14.20;99.90;;;-144.05;97.25;125687.94;4955276;28;20035;-88
2022/09/11 03:58:29;;;;;;;50.50;26.88;;;14.20;99.90;;;-144.05;97.45;125687.94;4939545;29;20084;-88
2022/09/11 04:00:55;;;;;;;48.70;27.42;;;14.30;99.90;;;-144.05;97.45;125687.94;4940970;29;20027;-88
2022/09/11 04:03:21;;;;;;;64.22;31.80;;;14.30;99.90;;;-144.05;97.54;125687.94;4938589;29;20396;-88
2022/09/11 04:06:01;;;;;;;55.17;29.05;;;14.40;99.90;;;-144.05;97.56;125687.94;4938960;29;20118;-89
2022/09/11 04:08:32;;;;;;;57.08;29.70;;;14.50;99.90;;;-144.05;97.34;125687.94;4955647;28;20151;-89
2022/09/11 04:11:04;;;;;;;46.58;26.52;;;14.50;99.90;;;-144.05;97.17;125687.94;4939748;29;20042;-89
2022/09/11 04:13:36;;;;;;;48.20;25.58;;;14.50;99.90;;;-144.05;97.36;125687.94;4939989;29;20125;-88
2022/09/11 04:16:22;;;;;;;53.40;27.30;;;14.50;99.90;;;-144.05;97.38;125687.94;4940835;29;20059;-87
2022/09/11 04:18:50;;;;;;;48.67;25.67;;;14.50;99.90;;;-144.05;97.18;125687.94;4955009;28;20044;-85
2022/09/11 04:21:18;;;;;;;55.00;28.58;;;14.50;99.90;;;-144.05;97.15;125687.94;4939084;29;20449;-87
2022/09/11 04:23:44;;;;;;;54.45;28.67;;;14.50;99.90;;;-144.05;97.10;125687.94;4939587;29;20396;-87
2022/09/11 04:26:32;;;;;;;47.47;25.60;;;14.50;99.90;;;-144.05;97.37;125687.94;4942255;29;20024;-88
2022/09/11 04:28:59;;;;;;;45.13;24.83;;;14.50;99.90;;;-144.05;97.18;125687.94;4938945;29;20034;-87
2022/09/11 04:31:26;;;;;;;44.38;24.77;;;14.60;99.90;;;-144.05;97.27;125687.94;4938809;29;20039;-87
2022/09/11 04:33:54;;;;;;;46.50;26.13;;;14.60;99.90;;;-144.05;97.05;125687.94;4955336;29;20035;-89
2022/09/11 04:36:23;;;;;;;48.65;25.40;;;14.60;99.90;;;-144.05;97.09;125687.94;4938442;29;20024;-89
2022/09/11 04:38:56;;;;;;;43.58;25.15;;;14.60;99.90;;;-144.05;97.02;125687.94;4961001;28;20039;-89
2022/09/11 04:41:24;;;;;;;48.97;25.20;;;14.60;99.90;;;-144.05;97.29;125687.94;4941117;29;20062;-91
2022/09/11 04:43:59;;;;;;;49.08;25.23;;;14.60;99.90;;;-144.05;97.30;125687.94;4948499;28;20042;-87
2022/09/11 04:46:26;;;;;;;63.85;33.35;;;14.60;99.90;;;-144.05;97.18;125687.94;4958978;28;20019;-86
2022/09/11 04:49:01;;;;;;;53.25;29.58;;;14.60;99.90;;;-144.05;97.26;125687.94;4958705;28;20036;-86
2022/09/11 04:51:37;;;;;;;49.87;26.10;;;14.70;99.90;;;-144.05;97.12;125687.94;4940602;29;20024;-89
2022/09/11 04:54:04;;;;;;;43.22;26.05;;;14.70;99.90;;;-144.05;97.08;125687.94;4938991;29;20030;-87
2022/09/11 04:56:38;;;;;;;43.17;23.17;;;14.70;99.90;;;-144.05;97.27;125687.94;4939345;29;20062;-91
2022/09/11 04:59:14;;;;;;;47.92;23.98;;;14.70;99.90;;;-144.05;97.18;125687.94;4939134;29;20042;-89
2022/09/11 05:01:42;;;;;;;45.95;25.02;;;14.70;99.90;;;-144.05;97.20;125687.94;4940374;29;20400;-88
2022/09/11 05:04:15;;;;;;;58.15;30.88;;;14.70;99.90;;;-144.05;97.14;125687.94;4955056;29;20090;-90
2022/09/11 05:06:44;;;;;;;49.47;25.13;;;14.70;99.90;;;-144.05;97.15;125687.94;4938989;29;20051;-88
2022/09/11 05:09:10;;;;;;;56.08;28.58;;;14.80;99.90;;;-144.05;97.07;125687.94;4938729;29;20036;-87
2022/09/11 05:11:39;;;;;;;68.82;32.85;;;14.70;99.90;;;-144.05;97.10;125687.94;4938398;29;20142;-90
2022/09/11 05:14:06;;;;;;;60.15;30.88;;;14.80;99.90;;;-144.05;97.14;125687.94;4938635;29;20082;-89
2022/09/11 05:16:34;;;;;;;55.13;27.98;;;14.70;99.90;;;-144.05;96.97;125687.94;4939099;29;20032;-88
2022/09/11 05:19:03;;;;;;;60.30;30.20;;;14.70;99.90;;;-144.05;97.06;125687.94;4939848;29;20032;-89
2022/09/11 05:21:30;;;;;;;50.63;26.23;;;14.70;99.90;;;-144.05;97.02;125687.94;4938995;29;20260;-87
2022/09/11 05:24:00;;;;;;;56.20;29.77;;;14.80;99.90;;;-144.05;97.08;125687.94;4938745;29;20051;-88
2022/09/11 05:26:34;;;;;;;55.75;26.17;;;14.70;99.90;;;-144.05;97.08;125687.94;4954588;29;20042;-88
2022/09/11 05:29:13;;;;;;;49.28;26.40;;;14.80;99.90;;;-144.05;97.03;125687.94;4939886;29;20050;-91
2022/09/11 05:31:39;;;;;;;60.90;28.95;;;14.80;99.90;;;-144.05;97.26;125687.94;4954723;29;20548;-89
2022/09/11 05:34:07;;;;;;;52.15;26.77;;;14.80;99.90;;;-144.05;96.98;125687.94;4939696;29;20035;-89
2022/09/11 05:36:34;;;;;;;102.55;39.45;;;14.80;99.90;;;-144.05;97.07;125687.94;4940611;29;20032;-90
2022/09/11 05:39:02;;;;;;;84.43;35.05;;;14.80;99.90;;;-144.05;96.93;125687.94;4945967;29;20038;-89
2022/09/11 05:41:28;;;;;;;88.07;35.75;;;14.80;99.90;;;-144.05;96.90;125687.94;4970079;28;20098;-88
2022/09/11 05:43:54;;;;;;;130.40;44.97;;;14.80;99.90;;;-144.05;97.04;125687.94;4954997;29;20016;-90
2022/09/11 05:46:21;;;;;;;104.80;38.80;;;14.90;99.90;;;-144.05;97.00;125687.94;4953793;29;20047;-87
2022/09/11 05:48:47;;;;;;;126.20;46.00;;;14.90;99.90;;;-144.05;96.86;125687.94;4960870;28;20035;-87
2022/09/11 05:51:20;;;;;;;112.32;42.58;;;14.90;99.90;;;-144.05;96.94;125687.94;4938416;29;20039;-89
2022/09/11 05:53:49;;;;;;;137.73;52.92;;;14.90;99.90;;;-144.05;96.40;125687.94;4938499;29;20043;-88
2022/09/11 05:56:20;;;;;;;124.63;49.97;;;14.90;99.90;;;-144.05;96.35;125687.94;4955177;28;20023;-90
2022/09/11 05:58:50;;;;;;;138.60;51.85;;;14.90;99.90;;;-144.05;96.17;125687.94;4940349;29;20040;-87
2022/09/11 06:01:21;;;;;;;123.80;49.13;;;14.80;99.90;;;-144.05;95.79;125687.94;4939277;29;20526;-89
2022/09/11 06:03:48;;;;;;;124.90;50.78;;;14.80;99.90;;;-144.05;95.87;125687.94;4940409;29;20176;-90
2022/09/11 06:06:17;;;;;;;115.68;44.65;;;14.80;99.90;;;-144.05;96.07;125687.94;4939668;29;20020;-88
2022/09/11 06:08:46;;;;;;;125.57;50.17;;;14.90;99.90;;;-144.05;95.56;125687.94;4938085;29;20062;-88
2022/09/11 06:11:17;;;;;;;115.22;44.72;;;14.80;99.90;;;-144.05;95.87;125687.94;4939285;29;20517;-87
2022/09/11 06:13:46;;;;;;;101.78;40.50;;;14.80;99.90;;;-144.05;95.62;125687.94;4938322;29;20039;-85
2022/09/11 06:16:22;;;;;;;102.45;45.03;;;14.90;99.90;;;-144.05;95.50;125687.94;4953958;28;20031;-86
2022/09/11 06:18:53;;;;;;;82.72;37.92;;;14.90;99.90;;;-144.05;95.43;125687.94;4937798;29;20027;-86
2022/09/11 06:21:23;;;;;;;94.05;39.88;;;15.00;99.90;;;-144.05;95.28;125687.94;4938112;29;20032;-87
2022/09/11 06:23:51;;;;;;;91.63;38.53;;;15.00;99.90;;;-144.05;95.30;125687.94;4941308;29;20447;-89
2022/09/11 06:26:24;;;;;;;81.78;36.22;;;15.00;99.90;;;-144.05;95.28;125687.94;4954043;28;20048;-89
2022/09/11 06:28:52;;;;;;;85.07;39.80;;;15.10;99.90;;;-144.05;95.20;125687.94;4941405;29;20055;-88
2022/09/11 06:31:25;;;;;;;104.47;44.13;;;15.10;99.90;;;-144.05;94.99;125687.94;4941995;29;20031;-89
2022/09/11 06:33:52;;;;;;;88.70;38.65;;;15.00;99.90;;;-144.05;95.24;125687.94;4941871;29;20036;-91
2022/09/11 06:36:25;;;;;;;87.20;40.90;;;15.10;99.90;;;-144.05;94.90;125687.94;4941972;29;20127;-88
2022/09/11 06:38:54;;;;;;;76.22;35.03;;;15.10;99.90;;;-144.05;95.17;125687.94;4942423;29;20031;-86
2022/09/11 06:41:21;;;;;;;83.47;39.15;;;15.20;99.90;;;-144.05;95.09;125687.94;4942566;29;20059;-89
2022/09/11 06:43:48;;;;;;;103.85;43.25;;;15.20;99.90;;;-144.05;94.69;125687.94;4959374;28;20039;-89
2022/09/11 06:46:19;;;;;;;95.15;43.47;;;15.20;99.90;;;-144.05;94.29;125687.94;4944629;29;20087;-88
2022/09/11 06:48:49;;;;;;;79.38;35.00;;;15.20;99.90;;;-144.05;94.47;125687.94;4941264;29;20191;-89
2022/09/11 06:51:22;;;;;;;89.15;37.05;;;15.20;99.90;;;-144.05;94.17;125687.94;4959169;28;20055;-88
2022/09/11 06:53:56;;;;;;;83.95;37.85;;;15.10;99.90;;;-144.05;94.32;125687.94;4943441;29;20032;-90
2022/09/11 06:56:23;;;;;;;79.55;34.80;;;15.10;99.90;;;-144.05;94.50;125687.94;4943284;29;20095;-87
2022/09/11 06:58:49;;;;;;;106.03;43.17;;;15.20;99.90;;;-144.05;94.59;125687.94;4942572;29;20043;-87
2022/09/11 07:01:20;;;;;;;89.57;39.60;;;15.20;99.90;;;-144.05;94.54;125687.94;4950101;29;20373;-90
2022/09/11 07:03:51;;;;;;;86.63;38.45;;;15.20;99.90;;;-144.05;94.46;125687.94;4950662;29;20035;-86
2022/09/11 07:06:25;;;;;;;86.13;38.85;;;15.20;99.90;;;-144.05;94.04;125687.94;4950495;29;20032;-90
2022/09/11 07:08:59;;;;;;;72.45;33.15;;;15.30;99.90;;;-144.05;93.71;125687.94;4945418;29;20043;-86
2022/09/11 07:11:31;;;;;;;83.28;36.47;;;15.30;99.90;;;-144.05;93.70;125687.94;4941101;29;20027;-88
2022/09/11 07:14:04;;;;;;;70.38;32.20;;;15.40;99.90;;;-144.05;93.73;125687.94;4940308;29;20039;-88
2022/09/11 07:16:32;;;;;;;68.68;33.30;;;15.40;99.90;;;-144.05;93.50;125687.94;4939673;29;20357;-88
2022/09/11 07:18:58;;;;;;;59.70;30.27;;;15.40;99.90;;;-144.05;93.37;125687.94;4939566;29;20040;-88
2022/09/11 07:21:27;;;;;;;76.85;35.55;;;15.40;99.90;;;-144.05;93.05;125687.94;4939478;29;20061;-87
2022/09/11 07:23:57;;;;;;;78.38;36.25;;;15.50;99.90;;;-144.05;93.00;125687.94;4941416;29;20397;-89
2022/09/11 07:26:27;;;;;;;75.18;34.97;;;15.50;99.90;;;-144.05;92.62;125687.94;4939335;29;20031;-88
2022/09/11 07:28:54;;;;;;;74.82;36.17;;;15.50;99.90;;;-144.05;92.34;125687.94;4940783;29;20027;-89
2022/09/11 07:31:28;;;;;;;73.88;34.95;;;15.60;99.90;;;-144.05;92.49;125687.94;4939229;29;20027;-88
2022/09/11 07:33:54;;;;;;;63.90;30.77;;;15.60;99.90;;;-144.05;92.55;125687.94;4941177;29;20374;-90
2022/09/11 07:36:33;;;;;;;63.95;31.05;;;15.60;99.90;;;-144.05;92.46;125687.94;4954534;29;20031;-89
2022/09/11 07:39:02;;;;;;;82.97;39.35;;;15.70;99.90;;;-144.05;92.56;125687.94;4937954;29;20036;-90
2022/09/11 07:41:28;;;;;;;77.05;35.13;;;15.60;99.90;;;-144.05;92.59;125687.94;4954249;29;20031;-88
2022/09/11 07:44:02;;;;;;;76.03;35.72;;;15.60;99.90;;;-144.05;92.52;125687.94;4938579;29;20028;-90
2022/09/11 07:46:30;;;;;;;64.60;31.55;;;15.70;99.90;;;-144.05;92.54;125687.94;4954315;28;20035;-89
2022/09/11 07:48:56;;;;;;;72.00;33.70;;;15.70;99.90;;;-144.05;92.66;125687.94;4938717;29;20035;-87
2022/09/11 07:51:22;;;;;;;73.70;36.50;;;15.70;99.90;;;-144.05;92.20;125687.94;4938153;29;20047;-89
2022/09/11 07:53:53;;;;;;;70.38;33.53;;;15.70;99.90;;;-144.05;92.24;125687.94;4938528;29;20480;-87
2022/09/11 07:56:25;;;;;;;64.43;32.55;;;15.70;99.90;;;-144.05;92.16;125687.94;4938437;29;20051;-88
2022/09/11 07:58:54;;;;;;;69.85;34.88;;;15.70;99.90;;;-144.05;91.93;125687.94;4939022;29;20134;-89
2022/09/11 08:01:26;;;;;;;72.18;35.42;;;15.70;99.90;;;-144.05;92.06;125687.94;4940416;29;20063;-87
2022/09/11 08:04:03;;;;;;;84.70;38.42;;;15.60;99.90;;;-144.05;92.16;125687.94;4940233;29;20479;-87
2022/09/11 08:06:34;;;;;;;68.28;33.22;;;15.60;99.90;;;-144.05;91.89;125687.94;4940228;29;20512;-86
2022/09/11 08:09:14;;;;;;;80.40;40.47;;;15.60;99.90;;;-144.05;91.75;125687.94;4941098;29;20057;-86
2022/09/11 08:11:47;;;;;;;79.68;38.15;;;15.60;99.90;;;-144.05;91.83;125687.94;4957601;28;20023;-86
2022/09/11 08:14:16;;;;;;;62.88;30.73;;;15.50;99.90;;;-144.05;91.73;125687.94;4941350;29;20507;-88
2022/09/11 08:16:43;;;;;;;67.40;33.67;;;15.60;99.90;;;-144.05;91.60;125687.94;4941111;29;20055;-88
2022/09/11 08:19:18;;;;;;;70.57;34.47;;;15.70;99.90;;;-144.05;91.25;125687.94;4960502;28;20047;-91
2022/09/11 08:21:46;;;;;;;81.97;38.22;;;15.60;99.90;;;-144.05;91.54;125687.94;4941418;29;20032;-90
2022/09/11 08:24:16;;;;;;;71.78;34.92;;;15.60;99.90;;;-144.05;91.32;125687.94;4939551;29;20044;-89
2022/09/11 08:26:43;;;;;;;67.35;32.00;;;15.50;99.90;;;-144.05;91.56;125687.94;4939803;29;20027;-86
2022/09/11 08:29:09;;;;;;;69.95;36.03;;;15.60;99.90;;;-144.05;91.25;125687.94;4940473;29;20050;-90
2022/09/11 08:31:35;;;;;;;64.55;33.58;;;15.50;99.90;;;-144.05;90.90;125687.94;4956062;29;20058;-88
2022/09/11 08:34:02;;;;;;;52.53;28.45;;;15.50;99.90;;;-144.05;91.23;125687.94;4939174;29;20083;-88
2022/09/11 08:36:28;;;;;;;54.90;30.48;;;15.50;99.90;;;-144.05;90.77;125687.94;4954624;28;20055;-87
2022/09/11 08:38:57;;;;;;;57.75;30.48;;;15.50;99.90;;;-144.05;90.74;125687.94;4939580;29;20032;-87
2022/09/11 08:41:22;;;;;;;52.00;27.83;;;15.50;99.90;;;-144.05;90.92;125687.94;4939446;29;20119;-89
2022/09/11 08:44:26;;;;;;;61.83;30.33;;;15.60;99.90;;;-144.05;90.64;125687.94;4940933;29;20036;-87
2022/09/11 08:47:07;;;;;;;51.92;28.13;;;15.50;99.90;;;-144.05;90.42;125687.94;4949781;29;20043;-89
2022/09/11 08:49:42;;;;;;;50.90;28.85;;;15.50;99.90;;;-144.05;90.17;125687.94;4939339;29;20032;-89
2022/09/11 08:52:17;;;;;;;52.38;27.73;;;15.50;99.90;;;-144.05;90.34;125687.94;4939583;29;20024;-90
2022/09/11 08:54:46;;;;;;;52.40;28.58;;;15.60;99.90;;;-144.05;90.15;125687.94;4940001;29;20036;-88
2022/09/11 08:57:54;;;;;;;53.83;28.80;;;15.60;99.90;;;-144.05;90.11;125687.94;4940577;29;20357;-87
2022/09/11 09:00:44;;;;;;;53.38;27.63;;;15.70;99.90;;;-144.05;89.23;125687.94;4939179;29;20035;-90
2022/09/11 09:04:15;;;;;;;50.28;27.35;;;15.70;99.90;;;-144.05;89.22;125687.94;4940438;29;20032;-89
2022/09/11 09:07:28;;;;;;;52.05;28.23;;;15.70;99.90;;;-144.05;89.34;125687.94;4902595;29;20028;-89
2022/09/11 09:10:52;;;;;;;43.08;26.02;;;15.70;99.90;;;-144.05;88.79;125687.94;4955399;28;20024;-89
2022/09/11 09:13:56;;;;;;;47.70;27.70;;;15.70;99.90;;;-144.05;88.58;125687.94;4955285;28;20039;-89
2022/09/11 09:16:53;;;;;;;45.00;26.25;;;15.80;99.90;;;-144.05;88.75;125687.94;4955436;29;20047;-88
2022/09/11 09:19:33;;;;;;;51.10;28.00;;;15.80;99.90;;;-144.05;88.71;125687.94;4954329;28;20460;-89
2022/09/11 09:22:37;;;;;;;49.00;27.35;;;15.80;99.90;;;-144.05;88.28;125687.94;4938702;29;20394;-87
2022/09/11 09:25:17;;;;;;;47.33;26.30;;;15.80;99.90;;;-144.05;88.05;125687.94;4928130;29;20397;-88
2022/09/11 09:27:59;;;;;;;50.03;26.38;;;15.90;99.90;;;-144.05;88.35;125687.94;4938984;29;20032;-90
2022/09/11 09:30:35;;;;;;;47.47;26.55;;;16.00;99.90;;;-144.05;87.89;125687.94;4940135;29;20032;-88
2022/09/11 09:33:59;;;;;;;45.00;25.40;;;15.90;99.90;;;-144.05;87.87;125687.94;4939321;29;20388;-90
2022/09/11 09:37:00;;;;;;;49.08;25.65;;;15.90;99.90;;;-144.05;87.53;125687.94;4940589;29;20042;-90
2022/09/11 09:39:28;;;;;;;51.05;29.20;;;15.90;99.90;;;-144.05;87.33;125687.94;4956026;28;20448;-90
2022/09/11 09:42:35;;;;;;;48.10;26.90;;;16.00;99.90;;;-144.05;87.16;125687.94;4940499;29;20083;-91
2022/09/11 09:45:52;;;;;;;45.50;25.77;;;16.00;99.90;;;-144.05;87.08;125687.94;4959404;29;20035;-90
2022/09/11 09:48:18;;;;;;;49.63;27.90;;;16.10;99.90;;;-144.05;86.97;125687.94;4953484;28;20035;-88
2022/09/11 09:50:44;;;;;;;45.47;26.23;;;16.10;99.90;;;-144.05;86.67;125687.94;4954292;29;20039;-90
2022/09/11 09:53:22;;;;;;;43.95;25.08;;;16.10;99.90;;;-144.05;86.83;125687.94;4946154;29;20036;-89
2022/09/11 09:55:51;;;;;;;47.60;27.38;;;16.10;99.90;;;-144.05;86.68;125687.94;4954137;28;20112;-88
2022/09/11 09:58:18;;;;;;;48.67;27.25;;;16.20;99.90;;;-144.05;85.82;125687.94;4954003;28;20059;-90
2022/09/11 10:00:44;;;;;;;45.95;27.23;;;16.30;99.90;;;-144.05;85.72;125687.94;4937616;29;20031;-88
2022/09/11 10:03:23;;;;;;;45.70;27.42;;;16.40;99.90;;;-144.05;85.29;125687.94;4951937;29;20042;-88
2022/09/11 10:05:55;;;;;;;48.05;25.92;;;16.50;99.90;;;-144.05;84.41;125687.94;4953314;29;20109;-87
2022/09/11 10:08:34;;;;;;;44.72;25.90;;;16.40;99.90;;;-144.05;84.92;125687.94;4938253;29;20028;-86
2022/09/11 10:11:12;;;;;;;45.35;27.00;;;16.30;99.90;;;-144.05;84.46;125687.94;4940126;29;20042;-88
2022/09/11 10:13:52;;;;;;;41.13;25.60;;;16.30;99.90;;;-144.05;84.84;125687.94;4941865;29;20094;-88
2022/09/11 10:16:26;;;;;;;40.40;24.17;;;16.40;99.90;;;-144.05;84.97;125687.94;4943056;29;20040;-89
2022/09/11 10:18:55;;;;;;;42.33;25.95;;;16.40;99.90;;;-144.05;84.65;125687.94;4942243;29;20027;-88
2022/09/11 10:21:34;;;;;;;47.38;28.35;;;16.40;99.90;;;-144.05;84.31;125687.94;4957736;29;20032;-90